Time;durP1;ratioP1;P1;durP2;ratioP2;P2;SDS_P1;SDS_P2;PMS_P1;PMS_P2;Temp;Humidity;BMP_temperature;BMP_pressure;BME280_temperature;BME280_humidity;BME280_pressure;Samples;Min_cycle;Max_cycle;Signal;HPM_P1;HPM_P2
2022/03/12 00:00:00;;;;;;;26.60;17.65;;;10.40;66.30;;;;;;5089962;28;20123;-60
2022/03/12 00:02:27;;;;;;;29.52;18.95;;;10.40;66.30;;;;;;5076088;28;20183;-60
2022/03/12 00:04:52;;;;;;;28.50;18.75;;;10.40;66.30;;;;;;5102004;28;20020;-61
2022/03/12 00:07:18;;;;;;;34.55;18.65;;;10.30;66.30;;;;;;5094259;28;20570;-62
2022/03/12 00:09:43;;;;;;;27.80;17.55;;;10.30;66.50;;;;;;5097466;28;20044;-61
2022/03/12 00:12:11;;;;;;;28.42;18.52;;;10.30;66.50;;;;;;5094524;28;20037;-62
2022/03/12 00:14:37;;;;;;;28.83;18.60;;;10.30;66.60;;;;;;5089027;28;20034;-61
2022/03/12 00:17:04;;;;;;;33.72;18.42;;;10.30;66.90;;;;;;5090661;28;20328;-61
2022/03/12 00:19:31;;;;;;;28.35;18.45;;;10.20;66.80;;;;;;5107116;28;20060;-60
2022/03/12 00:21:58;;;;;;;27.70;18.88;;;10.30;66.90;;;;;;5073684;28;20027;-61
2022/03/12 00:24:27;;;;;;;26.73;17.27;;;10.20;66.90;;;;;;5108560;27;20070;-62
2022/03/12 00:26:52;;;;;;;32.20;19.10;;;10.20;67.00;;;;;;5098673;28;20140;-62
2022/03/12 00:29:18;;;;;;;31.92;21.13;;;10.20;67.00;;;;;;5072828;28;20146;-61
2022/03/12 00:31:45;;;;;;;31.02;23.38;;;10.20;67.00;;;;;;5114725;27;20023;-61
2022/03/12 00:34:10;;;;;;;28.92;19.23;;;10.20;67.10;;;;;;5076617;28;20100;-62
2022/03/12 00:36:36;;;;;;;28.30;19.58;;;10.20;67.20;;;;;;5105575;28;20111;-60
2022/03/12 00:39:02;;;;;;;30.05;19.75;;;10.10;67.20;;;;;;5094076;28;20043;-61
2022/03/12 00:41:28;;;;;;;23.70;18.13;;;10.10;67.20;;;;;;5106392;28;20038;-61
2022/03/12 00:43:54;;;;;;;28.35;18.20;;;10.10;67.30;;;;;;5100861;28;20008;-62
2022/03/12 00:46:20;;;;;;;31.02;19.52;;;10.10;67.40;;;;;;5070532;28;20353;-61
2022/03/12 00:48:45;;;;;;;30.70;19.65;;;10.00;67.40;;;;;;5098353;28;20024;-61
2022/03/12 00:51:11;;;;;;;28.02;18.70;;;10.00;67.40;;;;;;5081316;28;20028;-61
2022/03/12 00:53:38;;;;;;;24.33;19.02;;;10.00;67.50;;;;;;5086128;28;20181;-60
2022/03/12 00:56:04;;;;;;;34.03;18.55;;;10.00;67.60;;;;;;5087229;28;20152;-61
2022/03/12 00:58:29;;;;;;;26.10;18.50;;;10.00;67.40;;;;;;5100076;27;20484;-61
2022/03/12 01:00:55;;;;;;;27.92;18.55;;;10.00;67.40;;;;;;5108501;27;20027;-61
2022/03/12 01:03:20;;;;;;;28.42;18.00;;;10.00;67.50;;;;;;5104833;28;20024;-61
2022/03/12 01:05:49;;;;;;;27.20;17.85;;;9.90;67.50;;;;;;5104995;28;20035;-62
2022/03/12 01:08:15;;;;;;;30.00;18.55;;;10.00;68.00;;;;;;5113404;27;20668;-61
2022/03/12 01:10:41;;;;;;;25.35;18.98;;;10.00;67.60;;;;;;5079592;28;20027;-62
2022/03/12 01:13:06;;;;;;;29.52;20.63;;;9.90;67.40;;;;;;5126553;27;20098;-61
2022/03/12 01:15:32;;;;;;;28.00;20.10;;;10.00;67.30;;;;;;5085194;28;20487;-61
2022/03/12 01:17:58;;;;;;;29.85;20.65;;;10.00;67.40;;;;;;5104436;28;20476;-61
2022/03/12 01:20:24;;;;;;;26.83;18.85;;;10.00;67.40;;;;;;5101311;28;20092;-61
2022/03/12 01:22:50;;;;;;;25.90;19.45;;;9.90;67.60;;;;;;5104229;28;20039;-61
2022/03/12 01:25:15;;;;;;;27.88;19.80;;;9.90;67.70;;;;;;5086133;28;20038;-61
2022/03/12 01:27:41;;;;;;;26.95;19.33;;;9.90;67.60;;;;;;5086856;28;20169;-61
2022/03/12 01:30:07;;;;;;;29.13;18.92;;;9.90;67.70;;;;;;5096632;28;20469;-61
2022/03/12 01:32:33;;;;;;;26.15;19.10;;;9.90;68.50;;;;;;5088305;28;20040;-61
2022/03/12 01:34:59;;;;;;;25.55;17.80;;;9.80;67.70;;;;;;5105933;28;20052;-61
2022/03/12 01:37:24;;;;;;;23.98;18.33;;;9.80;68.00;;;;;;5099888;28;20074;-61
2022/03/12 01:39:50;;;;;;;28.80;19.02;;;9.80;67.80;;;;;;5090155;28;20079;-61
2022/03/12 01:42:16;;;;;;;23.63;18.58;;;9.80;67.90;;;;;;5106541;28;20519;-62
2022/03/12 01:44:42;;;;;;;26.55;18.58;;;9.80;67.80;;;;;;5093534;28;20027;-61
2022/03/12 01:47:09;;;;;;;25.85;17.15;;;9.80;67.90;;;;;;5103641;27;20031;-60
2022/03/12 01:49:34;;;;;;;24.60;18.55;;;9.80;68.10;;;;;;5089181;28;20020;-60
2022/03/12 01:52:00;;;;;;;24.25;18.45;;;9.80;68.10;;;;;;5067880;28;20024;-62
2022/03/12 01:54:26;;;;;;;24.48;19.08;;;9.80;68.10;;;;;;5088016;28;20023;-62
2022/03/12 01:56:53;;;;;;;25.10;17.83;;;9.80;68.20;;;;;;5104098;28;20032;-60
2022/03/12 01:59:19;;;;;;;25.88;18.73;;;9.80;68.30;;;;;;5101792;27;20095;-60
2022/03/12 02:01:46;;;;;;;24.25;17.65;;;9.80;68.40;;;;;;5083503;28;20453;-62
2022/03/12 02:04:11;;;;;;;27.15;18.42;;;9.70;68.40;;;;;;5087490;28;20051;-62
2022/03/12 02:06:43;;;;;;;30.05;19.50;;;9.80;68.40;;;;;;5089342;28;20019;-62
2022/03/12 02:09:13;;;;;;;26.17;18.55;;;9.70;68.40;;;;;;5087076;28;20554;-62
2022/03/12 02:11:39;;;;;;;24.25;18.75;;;9.70;68.50;;;;;;5089305;28;20056;-62
2022/03/12 02:14:09;;;;;;;30.85;19.45;;;9.70;68.50;;;;;;5087950;27;20166;-61
2022/03/12 02:16:35;;;;;;;28.35;18.67;;;9.70;68.70;;;;;;5088000;28;20023;-62
2022/03/12 02:19:01;;;;;;;26.55;18.83;;;9.70;68.80;;;;;;5088119;28;20034;-62
2022/03/12 02:21:44;;;;;;;29.38;18.77;;;9.70;68.80;;;;;;5084797;28;20080;-62
2022/03/12 02:24:14;;;;;;;27.67;19.13;;;9.70;69.00;;;;;;5099402;28;20072;-61
2022/03/12 02:26:42;;;;;;;25.98;19.08;;;9.70;69.20;;;;;;5095162;28;20139;-61
2022/03/12 02:29:12;;;;;;;26.67;17.60;;;9.70;69.30;;;;;;5092946;28;20020;-61
2022/03/12 02:31:41;;;;;;;26.95;18.63;;;9.60;69.20;;;;;;5084862;28;20040;-61
2022/03/12 02:34:10;;;;;;;23.55;18.35;;;9.60;69.20;;;;;;5089676;28;20020;-62
2022/03/12 02:36:36;;;;;;;24.73;17.92;;;9.60;69.10;;;;;;5089069;28;20027;-61
2022/03/12 02:39:05;;;;;;;25.33;17.90;;;9.60;68.90;;;;;;5092399;28;20064;-61
2022/03/12 02:41:30;;;;;;;24.63;18.10;;;9.60;68.80;;;;;;5073500;28;20020;-62
2022/03/12 02:43:56;;;;;;;27.55;18.20;;;9.60;68.80;;;;;;5076656;28;20088;-61
2022/03/12 02:46:26;;;;;;;30.33;20.70;;;9.60;68.80;;;;;;5105010;28;20031;-61
2022/03/12 02:48:52;;;;;;;29.55;20.45;;;9.60;68.90;;;;;;5085012;28;20028;-61
2022/03/12 02:51:18;;;;;;;26.20;19.15;;;9.60;68.90;;;;;;5069693;28;20118;-60
2022/03/12 02:53:44;;;;;;;25.05;17.88;;;9.60;68.90;;;;;;5065293;28;20032;-62
2022/03/12 02:56:11;;;;;;;23.98;18.33;;;9.50;68.90;;;;;;5101175;28;20026;-61
2022/03/12 02:58:37;;;;;;;23.33;17.95;;;9.50;68.90;;;;;;5084902;28;20431;-62
2022/03/12 03:01:03;;;;;;;23.65;17.83;;;9.50;68.90;;;;;;5105278;28;20518;-61
2022/03/12 03:03:32;;;;;;;26.58;18.88;;;9.50;69.00;;;;;;5074881;28;20157;-60
2022/03/12 03:05:58;;;;;;;27.83;18.70;;;9.50;69.10;;;;;;5100316;28;20536;-61
2022/03/12 03:08:24;;;;;;;25.90;19.02;;;9.50;69.10;;;;;;5099438;28;20119;-62
2022/03/12 03:10:51;;;;;;;28.05;18.20;;;9.50;69.10;;;;;;5102230;28;20169;-61
2022/03/12 03:13:31;;;;;;;27.10;18.52;;;9.50;69.00;;;;;;5091765;28;20042;-61
2022/03/12 03:16:01;;;;;;;25.00;17.50;;;9.50;69.00;;;;;;5099041;28;20031;-61
2022/03/12 03:18:34;;;;;;;25.10;17.40;;;9.40;69.10;;;;;;5107093;28;20475;-61
2022/03/12 03:21:00;;;;;;;26.02;17.88;;;9.40;69.00;;;;;;5088017;28;20043;-62
2022/03/12 03:23:29;;;;;;;26.92;18.15;;;9.40;69.00;;;;;;5081556;28;20189;-61
2022/03/12 03:25:54;;;;;;;27.63;18.30;;;9.40;69.00;;;;;;5070499;28;20383;-61
2022/03/12 03:28:20;;;;;;;25.02;17.27;;;9.40;69.10;;;;;;5107999;27;20111;-60
2022/03/12 03:30:46;;;;;;;24.58;17.55;;;9.40;69.10;;;;;;5093577;27;20036;-61
2022/03/12 03:33:17;;;;;;;25.92;17.70;;;9.40;69.00;;;;;;5087385;28;20051;-60
2022/03/12 03:35:42;;;;;;;26.92;19.67;;;9.40;69.20;;;;;;5086216;28;20463;-61
2022/03/12 03:38:08;;;;;;;26.05;19.65;;;9.40;69.10;;;;;;5106601;28;20015;-60
2022/03/12 03:40:34;;;;;;;25.92;18.98;;;9.30;69.20;;;;;;5107584;28;20023;-61
2022/03/12 03:43:00;;;;;;;24.25;18.02;;;9.40;69.20;;;;;;5069789;28;20119;-61
2022/03/12 03:45:27;;;;;;;27.50;18.70;;;9.40;69.30;;;;;;5083263;28;20032;-62
2022/03/12 03:47:52;;;;;;;24.33;18.48;;;9.30;70.00;;;;;;5088856;28;20032;-61
2022/03/12 03:50:25;;;;;;;27.02;17.92;;;9.30;69.50;;;;;;5090503;28;20020;-62
2022/03/12 03:52:50;;;;;;;24.58;18.38;;;9.30;69.50;;;;;;5108703;27;20027;-61
2022/03/12 03:55:16;;;;;;;27.38;19.02;;;9.30;69.40;;;;;;5102396;28;20465;-61
2022/03/12 03:57:41;;;;;;;25.23;18.45;;;9.20;69.40;;;;;;5106930;28;20031;-61
2022/03/12 04:00:08;;;;;;;27.35;18.52;;;9.30;69.50;;;;;;5106584;28;20032;-61
2022/03/12 04:02:33;;;;;;;28.38;19.10;;;9.30;69.40;;;;;;5085838;28;20483;-61
2022/03/12 04:04:59;;;;;;;24.15;17.92;;;9.30;69.40;;;;;;5084287;28;20068;-62
2022/03/12 04:07:25;;;;;;;26.25;17.08;;;9.30;69.50;;;;;;5103988;28;20195;-61
2022/03/12 04:09:51;;;;;;;24.38;18.05;;;9.30;69.40;;;;;;5098051;27;20072;-61
2022/03/12 04:12:17;;;;;;;29.27;17.70;;;9.30;69.50;;;;;;5096390;28;20115;-60
2022/03/12 04:14:43;;;;;;;26.83;18.52;;;9.30;69.60;;;;;;5081057;28;20023;-61
2022/03/12 04:17:08;;;;;;;23.98;17.02;;;9.30;69.60;;;;;;5104360;28;20012;-61
2022/03/12 04:19:34;;;;;;;27.60;17.30;;;9.20;69.60;;;;;;5100113;28;20465;-61
2022/03/12 04:22:01;;;;;;;21.10;16.65;;;9.30;69.70;;;;;;5081267;28;20039;-61
2022/03/12 04:24:27;;;;;;;21.08;16.88;;;9.20;69.70;;;;;;5096017;28;20033;-62
2022/03/12 04:26:52;;;;;;;22.00;17.35;;;9.20;69.80;;;;;;5084994;28;20034;-60
2022/03/12 04:29:18;;;;;;;22.50;16.75;;;9.20;69.90;;;;;;5083772;28;20028;-61
2022/03/12 04:31:47;;;;;;;22.70;16.98;;;9.20;69.90;;;;;;5101150;28;20024;-61
2022/03/12 04:34:13;;;;;;;22.60;16.70;;;9.20;70.00;;;;;;5106953;27;20015;-61
2022/03/12 04:36:41;;;;;;;20.65;15.68;;;9.20;70.10;;;;;;5100359;28;20705;-60
2022/03/12 04:39:09;;;;;;;21.60;16.08;;;9.20;70.10;;;;;;5082842;28;20015;-61
2022/03/12 04:41:36;;;;;;;23.38;17.40;;;9.20;70.20;;;;;;5106125;27;20036;-61
2022/03/12 04:44:06;;;;;;;19.70;16.08;;;9.10;70.10;;;;;;5094847;27;20051;-62
2022/03/12 04:46:32;;;;;;;23.83;16.63;;;9.10;70.10;;;;;;5096280;28;20028;-61
2022/03/12 04:48:57;;;;;;;27.52;17.95;;;9.20;70.20;;;;;;5086475;28;20036;-61
2022/03/12 04:51:23;;;;;;;27.17;18.92;;;9.10;70.10;;;;;;5097227;28;20109;-61
2022/03/12 04:53:48;;;;;;;26.17;19.70;;;9.20;70.20;;;;;;5104904;27;20030;-60
2022/03/12 04:56:14;;;;;;;28.88;18.45;;;9.20;70.20;;;;;;5109670;27;20103;-61
2022/03/12 04:58:40;;;;;;;23.35;17.67;;;9.20;70.10;;;;;;5096655;27;20024;-61
2022/03/12 05:01:07;;;;;;;24.20;17.77;;;9.10;70.10;;;;;;5102507;27;20126;-62
2022/03/12 05:03:32;;;;;;;22.55;16.70;;;9.20;70.20;;;;;;5099408;28;20134;-62
2022/03/12 05:05:59;;;;;;;23.52;16.23;;;9.10;70.30;;;;;;5095641;28;20108;-62
2022/03/12 05:08:28;;;;;;;27.85;17.52;;;9.10;70.40;;;;;;5078852;28;20055;-61
2022/03/12 05:10:56;;;;;;;28.52;16.95;;;9.10;70.40;;;;;;5106843;27;20371;-61
2022/03/12 05:13:23;;;;;;;27.30;18.00;;;9.10;70.50;;;;;;5101376;28;20111;-62
2022/03/12 05:15:53;;;;;;;26.73;16.83;;;9.10;70.60;;;;;;5100320;28;20446;-62
2022/03/12 05:18:19;;;;;;;25.45;16.00;;;9.10;70.70;;;;;;5098746;27;20110;-61
2022/03/12 05:20:46;;;;;;;28.15;17.15;;;9.10;70.70;;;;;;5096575;28;20026;-60
2022/03/12 05:23:12;;;;;;;24.25;16.23;;;9.10;70.70;;;;;;5090914;28;20058;-61
2022/03/12 05:25:41;;;;;;;22.00;16.10;;;9.10;70.70;;;;;;5096373;28;20031;-62
2022/03/12 05:28:08;;;;;;;22.00;16.65;;;9.10;70.70;;;;;;5105500;27;20039;-60
2022/03/12 05:30:34;;;;;;;27.05;17.00;;;9.10;70.80;;;;;;5085389;28;20043;-61
2022/03/12 05:32:59;;;;;;;27.17;16.83;;;9.10;70.80;;;;;;5100991;28;20027;-62
2022/03/12 05:35:25;;;;;;;35.83;17.35;;;9.20;70.80;;;;;;5103927;28;20596;-60
2022/03/12 05:37:51;;;;;;;24.58;15.95;;;9.10;70.70;;;;;;5103772;28;20051;-62
2022/03/12 05:40:19;;;;;;;26.23;16.23;;;9.30;70.90;;;;;;5098448;28;20051;-61
2022/03/12 05:42:45;;;;;;;26.15;16.60;;;9.10;70.80;;;;;;5098085;28;20119;-61
2022/03/12 05:45:11;;;;;;;41.92;17.30;;;9.10;70.70;;;;;;5100262;28;20032;-61
2022/03/12 05:47:40;;;;;;;24.58;16.90;;;9.10;70.70;;;;;;5103628;28;20035;-61
2022/03/12 05:50:09;;;;;;;33.50;15.77;;;9.20;70.90;;;;;;5106689;28;20111;-62
2022/03/12 05:52:38;;;;;;;38.20;17.20;;;9.10;70.90;;;;;;5102786;27;20020;-61
2022/03/12 05:55:05;;;;;;;30.88;16.70;;;9.20;70.90;;;;;;5106261;28;20046;-60
2022/03/12 05:57:37;;;;;;;31.75;16.52;;;9.20;70.80;;;;;;5108188;27;20019;-62
2022/03/12 06:00:10;;;;;;;29.75;16.70;;;9.20;70.80;;;;;;5094821;28;20039;-62
2022/03/12 06:02:35;;;;;;;35.72;16.67;;;9.20;71.00;;;;;;5086745;28;20382;-61
2022/03/12 06:05:01;;;;;;;30.58;17.00;;;9.10;71.00;;;;;;5101127;28;20036;-61
2022/03/12 06:07:32;;;;;;;42.72;17.25;;;9.10;71.20;;;;;;5102346;27;20040;-61
2022/03/12 06:09:58;;;;;;;32.50;15.55;;;9.10;71.30;;;;;;5097745;28;20025;-61
2022/03/12 06:12:26;;;;;;;33.83;16.88;;;9.10;71.60;;;;;;5103603;27;20034;-61
2022/03/12 06:14:57;;;;;;;38.03;16.65;;;9.10;71.60;;;;;;5106484;28;20035;-61
2022/03/12 06:17:27;;;;;;;30.58;16.77;;;9.10;71.60;;;;;;5088893;28;20022;-60
2022/03/12 06:19:52;;;;;;;32.03;16.13;;;9.20;71.60;;;;;;5078033;28;20035;-61
2022/03/12 06:22:18;;;;;;;21.90;16.40;;;9.10;71.60;;;;;;5096187;28;20380;-60
2022/03/12 06:24:45;;;;;;;27.08;16.15;;;9.10;71.70;;;;;;5085171;28;20114;-60
2022/03/12 06:27:11;;;;;;;24.77;15.68;;;9.00;71.70;;;;;;5100399;28;20032;-60
2022/03/12 06:29:37;;;;;;;20.90;15.80;;;9.10;71.80;;;;;;5092606;28;20031;-62
2022/03/12 06:32:04;;;;;;;25.88;15.98;;;9.10;71.80;;;;;;5093336;28;20026;-61
2022/03/12 06:34:30;;;;;;;28.77;15.85;;;9.10;71.70;;;;;;5079428;28;20047;-60
2022/03/12 06:36:55;;;;;;;24.05;15.15;;;9.10;71.80;;;;;;5094359;28;20020;-61
2022/03/12 06:39:21;;;;;;;22.95;15.75;;;9.10;71.80;;;;;;5102857;28;20031;-61
2022/03/12 06:41:46;;;;;;;25.65;14.90;;;9.10;71.80;;;;;;5097357;28;20072;-62
2022/03/12 06:44:16;;;;;;;30.98;15.45;;;9.10;71.70;;;;;;5097949;28;20036;-60
2022/03/12 06:46:41;;;;;;;21.70;15.75;;;9.10;71.40;;;;;;5090986;28;20036;-60
2022/03/12 06:49:07;;;;;;;20.50;15.18;;;9.10;71.40;;;;;;5102233;28;20387;-62
2022/03/12 06:51:33;;;;;;;28.83;15.65;;;9.10;71.40;;;;;;5091542;28;20502;-61
2022/03/12 06:53:59;;;;;;;25.00;16.15;;;9.10;71.40;;;;;;5107612;28;20035;-62
2022/03/12 06:56:24;;;;;;;23.38;15.70;;;9.10;71.40;;;;;;5104893;28;20045;-62
2022/03/12 06:58:50;;;;;;;70.22;17.52;;;9.10;71.80;;;;;;5099975;28;20036;-61
2022/03/12 07:01:15;;;;;;;42.70;17.67;;;9.10;71.40;;;;;;5098825;28;20024;-60
2022/03/12 07:03:41;;;;;;;42.25;17.13;;;9.10;71.50;;;;;;5106586;28;20071;-61
2022/03/12 07:06:07;;;;;;;33.00;16.85;;;9.10;71.40;;;;;;5083706;28;20070;-61
2022/03/12 07:08:33;;;;;;;30.75;15.63;;;9.10;71.40;;;;;;5107957;28;20419;-62
2022/03/12 07:10:59;;;;;;;35.28;16.20;;;9.10;71.30;;;;;;5097258;28;20046;-62
2022/03/12 07:13:24;;;;;;;33.88;15.93;;;9.10;71.30;;;;;;5088092;28;20051;-62
2022/03/12 07:15:50;;;;;;;31.85;16.27;;;9.10;71.30;;;;;;5107690;28;20081;-62
2022/03/12 07:18:15;;;;;;;33.13;16.48;;;9.10;71.20;;;;;;5099794;28;20019;-62
2022/03/12 07:20:41;;;;;;;26.23;15.15;;;9.10;71.20;;;;;;5103012;28;20074;-61
2022/03/12 07:23:07;;;;;;;35.08;15.38;;;9.10;71.10;;;;;;5101944;28;20068;-62
2022/03/12 07:25:33;;;;;;;31.60;15.95;;;9.10;71.10;;;;;;5105582;28;20055;-61
2022/03/12 07:28:00;;;;;;;28.25;15.20;;;9.20;71.00;;;;;;5106555;28;20185;-62
2022/03/12 07:30:25;;;;;;;28.70;15.93;;;9.20;71.00;;;;;;5102271;28;20054;-61
2022/03/12 07:32:51;;;;;;;27.17;16.15;;;9.20;71.00;;;;;;5108091;28;20020;-61
2022/03/12 07:35:17;;;;;;;39.72;16.88;;;9.20;70.90;;;;;;5101238;28;20072;-60
2022/03/12 07:37:43;;;;;;;36.67;17.33;;;9.20;70.90;;;;;;5105428;28;20161;-62
2022/03/12 07:40:10;;;;;;;33.50;16.38;;;9.20;70.90;;;;;;5107765;28;20491;-61
2022/03/12 07:42:36;;;;;;;32.40;15.60;;;9.20;70.80;;;;;;5065034;28;20036;-61
2022/03/12 07:45:02;;;;;;;35.63;16.38;;;9.20;70.80;;;;;;5102851;28;20335;-60
2022/03/12 07:47:28;;;;;;;44.70;15.63;;;9.20;70.70;;;;;;5109579;28;20041;-61
2022/03/12 07:49:53;;;;;;;29.50;15.63;;;9.20;70.70;;;;;;5105777;28;20024;-61
2022/03/12 07:52:19;;;;;;;33.13;16.20;;;9.20;70.80;;;;;;5082684;28;20028;-60
2022/03/12 07:54:45;;;;;;;30.88;15.50;;;9.20;70.90;;;;;;5107083;28;20369;-62
2022/03/12 07:57:10;;;;;;;26.05;15.40;;;9.20;71.00;;;;;;5108377;28;20114;-60
2022/03/12 07:59:36;;;;;;;26.85;15.38;;;9.20;71.00;;;;;;5105654;28;20038;-62
2022/03/12 08:02:02;;;;;;;25.70;15.93;;;9.20;71.00;;;;;;5108022;28;20111;-61
2022/03/12 08:04:32;;;;;;;33.83;15.70;;;9.20;71.10;;;;;;5085710;28;20120;-61
2022/03/12 08:07:00;;;;;;;30.27;16.23;;;9.20;71.10;;;;;;5104982;28;20525;-61
2022/03/12 08:09:25;;;;;;;30.77;16.08;;;9.20;71.10;;;;;;5107902;28;20026;-61
2022/03/12 08:11:51;;;;;;;32.60;14.68;;;9.30;71.20;;;;;;5108137;28;20035;-61
2022/03/12 08:14:18;;;;;;;31.48;15.23;;;9.30;71.20;;;;;;5091181;28;20019;-61
2022/03/12 08:16:44;;;;;;;31.60;15.18;;;9.30;71.20;;;;;;5107112;28;20328;-61
2022/03/12 08:19:10;;;;;;;24.77;14.82;;;9.30;71.20;;;;;;5091297;28;20402;-61
2022/03/12 08:21:36;;;;;;;24.02;14.82;;;9.20;71.10;;;;;;5106683;28;20393;-62
2022/03/12 08:24:02;;;;;;;22.38;15.05;;;9.30;71.20;;;;;;5101301;28;20028;-61
2022/03/12 08:26:28;;;;;;;30.67;15.10;;;9.30;71.10;;;;;;5110259;28;20028;-61
2022/03/12 08:28:54;;;;;;;22.52;14.98;;;9.30;71.00;;;;;;5072970;28;20036;-61
2022/03/12 08:31:19;;;;;;;26.55;16.60;;;9.30;71.00;;;;;;5104989;28;20046;-60
2022/03/12 08:33:45;;;;;;;28.77;16.25;;;9.30;70.90;;;;;;5099753;28;20111;-62
2022/03/12 08:36:10;;;;;;;33.60;16.08;;;9.30;70.90;;;;;;5100398;28;20031;-61
2022/03/12 08:38:36;;;;;;;24.35;15.73;;;9.30;70.80;;;;;;5089051;28;20479;-61
2022/03/12 08:41:05;;;;;;;30.90;16.60;;;9.30;70.80;;;;;;5089462;28;20023;-61
2022/03/12 08:43:30;;;;;;;22.20;15.60;;;9.40;70.70;;;;;;5108519;27;20038;-62
2022/03/12 08:45:56;;;;;;;26.23;14.82;;;9.40;70.60;;;;;;5095498;28;20027;-61
2022/03/12 08:48:21;;;;;;;32.13;15.60;;;9.40;70.50;;;;;;5094884;28;20110;-61
2022/03/12 08:50:47;;;;;;;27.55;15.95;;;9.40;70.50;;;;;;5108493;28;20123;-61
2022/03/12 08:53:12;;;;;;;22.75;15.10;;;9.40;70.40;;;;;;5104363;28;20083;-60
2022/03/12 08:55:38;;;;;;;24.58;15.18;;;9.40;70.40;;;;;;5105368;28;20111;-61
2022/03/12 08:58:04;;;;;;;22.45;15.10;;;9.40;70.30;;;;;;5097513;27;20435;-60
2022/03/12 09:00:30;;;;;;;26.33;15.90;;;9.50;70.30;;;;;;5079563;28;20156;-60
2022/03/12 09:02:56;;;;;;;22.52;15.40;;;9.40;70.10;;;;;;5093499;28;20489;-61
2022/03/12 09:05:22;;;;;;;29.00;15.85;;;9.50;70.10;;;;;;5106057;28;20225;-62
2022/03/12 09:07:51;;;;;;;23.52;15.00;;;9.50;70.00;;;;;;5100288;28;20099;-61
2022/03/12 09:10:16;;;;;;;30.20;15.35;;;9.50;70.00;;;;;;5097662;28;20088;-62
2022/03/12 09:12:42;;;;;;;22.65;15.85;;;9.60;70.00;;;;;;5101088;28;20035;-61
2022/03/12 09:15:08;;;;;;;39.80;15.88;;;9.60;70.00;;;;;;5096776;28;20030;-61
2022/03/12 09:17:34;;;;;;;28.65;15.70;;;9.60;69.90;;;;;;5067330;28;20020;-61
2022/03/12 09:20:00;;;;;;;19.77;14.55;;;9.70;69.90;;;;;;5101617;28;20024;-61
2022/03/12 09:22:26;;;;;;;27.70;14.85;;;9.70;70.30;;;;;;5093998;28;20059;-61
2022/03/12 09:24:51;;;;;;;26.55;14.88;;;9.70;70.00;;;;;;5086015;28;20089;-60
2022/03/12 09:27:17;;;;;;;40.78;16.15;;;9.80;70.20;;;;;;5100619;28;20131;-61
2022/03/12 09:29:42;;;;;;;39.38;16.85;;;9.80;70.40;;;;;;5099598;28;20048;-61
2022/03/12 09:32:08;;;;;;;48.28;16.77;;;9.90;70.30;;;;;;5093788;28;20028;-60
2022/03/12 09:34:34;;;;;;;28.35;14.68;;;9.90;70.40;;;;;;5100240;28;20024;-60
2022/03/12 09:37:01;;;;;;;36.42;15.90;;;9.90;70.10;;;;;;5097140;27;20428;-61
2022/03/12 09:39:26;;;;;;;52.28;16.33;;;10.00;69.80;;;;;;5099554;28;20436;-60
2022/03/12 09:41:52;;;;;;;55.85;17.67;;;10.00;70.10;;;;;;5100865;28;20036;-61
2022/03/12 09:44:17;;;;;;;60.95;18.17;;;10.10;70.50;;;;;;5098691;28;20114;-60
2022/03/12 09:46:43;;;;;;;104.38;22.10;;;10.10;70.70;;;;;;5100146;28;20021;-60
2022/03/12 09:49:11;;;;;;;97.78;20.67;;;10.20;70.90;;;;;;5100515;28;20375;-61
2022/03/12 09:51:36;;;;;;;92.85;21.17;;;10.20;70.90;;;;;;5101702;28;20050;-62
2022/03/12 09:54:02;;;;;;;97.13;20.05;;;10.30;70.80;;;;;;5097906;27;20029;-60
2022/03/12 09:56:27;;;;;;;90.90;20.58;;;10.40;70.80;;;;;;5097227;27;20418;-61
2022/03/12 09:58:53;;;;;;;79.65;21.42;;;10.40;71.00;;;;;;5081768;28;20019;-61
2022/03/12 10:01:18;;;;;;;128.63;23.55;;;10.50;70.90;;;;;;5106259;28;20023;-61
2022/03/12 10:03:44;;;;;;;88.43;21.23;;;10.50;70.90;;;;;;5095453;28;20134;-61
2022/03/12 10:06:10;;;;;;;85.68;20.92;;;10.60;71.10;;;;;;5094926;28;20615;-60
2022/03/12 10:08:36;;;;;;;84.05;20.05;;;10.60;71.20;;;;;;5056010;28;20558;-61
2022/03/12 10:11:02;;;;;;;105.90;21.50;;;10.70;71.00;;;;;;5097913;28;20099;-61
2022/03/12 10:13:28;;;;;;;99.22;20.92;;;10.70;71.00;;;;;;5095902;28;20035;-60
2022/03/12 10:15:53;;;;;;;116.65;23.02;;;10.70;71.30;;;;;;5098235;28;20059;-60
2022/03/12 10:18:20;;;;;;;146.43;26.80;;;10.80;71.40;;;;;;5100941;28;20482;-61
2022/03/12 10:20:46;;;;;;;193.00;29.60;;;10.90;71.50;;;;;;5102826;28;20438;-61
2022/03/12 10:23:11;;;;;;;145.70;25.20;;;10.90;71.80;;;;;;5096129;28;20071;-61
2022/03/12 10:25:38;;;;;;;118.88;22.48;;;11.00;71.80;;;;;;5095810;28;20444;-61
2022/03/12 10:28:04;;;;;;;123.35;23.77;;;11.10;71.70;;;;;;5096918;28;20062;-60
2022/03/12 10:30:29;;;;;;;148.35;25.48;;;11.10;71.80;;;;;;5093919;28;20056;-60
2022/03/12 10:32:55;;;;;;;147.25;26.45;;;11.20;71.90;;;;;;5101184;28;20123;-62
2022/03/12 10:35:21;;;;;;;130.25;26.45;;;11.20;72.00;;;;;;5102170;28;20317;-61
2022/03/12 10:37:47;;;;;;;119.10;23.48;;;11.30;71.50;;;;;;5082941;28;20020;-61
2022/03/12 10:40:26;;;;;;;139.73;27.27;;;11.30;71.40;;;;;;5094226;28;20114;-61
2022/03/12 10:42:56;;;;;;;133.52;25.92;;;11.40;71.30;;;;;;5100792;28;20039;-62
2022/03/12 10:45:24;;;;;;;168.02;26.08;;;11.40;71.20;;;;;;5091696;28;20347;-60
2022/03/12 10:47:54;;;;;;;123.85;25.02;;;11.40;71.30;;;;;;5092024;28;20024;-61
2022/03/12 10:50:40;;;;;;;180.43;29.27;;;11.50;71.20;;;;;;5087567;28;20057;-62
2022/03/12 10:53:06;;;;;;;128.45;25.33;;;11.50;71.10;;;;;;5085671;28;20494;-65
2022/03/12 10:55:37;;;;;;;139.40;25.48;;;11.60;71.30;;;;;;5103968;28;20040;-61
2022/03/12 10:58:23;;;;;;;152.25;26.50;;;11.60;71.50;;;;;;5076050;28;20020;-60
2022/03/12 11:00:50;;;;;;;;;;;11.70;71.40;;;;;;5101129;28;20038;-60
2022/03/12 11:03:20;;;;;;;141.57;29.20;;;11.80;71.30;;;;;;5106839;28;19950;-61
2022/03/12 11:05:46;;;;;;;173.38;29.52;;;11.80;71.10;;;;;;5070831;28;20485;-61
2022/03/12 11:08:18;;;;;;;157.90;27.00;;;11.90;71.20;;;;;;5096755;28;20048;-61
2022/03/12 11:11:15;;;;;;;153.32;27.77;;;11.90;71.40;;;;;;5093750;28;20105;-60
2022/03/12 11:13:50;;;;;;;155.98;27.67;;;11.90;71.30;;;;;;5092569;28;20219;-61
2022/03/12 11:16:24;;;;;;;147.82;27.90;;;12.00;71.50;;;;;;5085296;28;20028;-62
2022/03/12 11:18:52;;;;;;;192.23;28.05;;;12.00;71.60;;;;;;5099616;28;20410;-61
2022/03/12 11:21:26;;;;;;;175.25;27.58;;;12.10;71.50;;;;;;5093335;28;20035;-61
2022/03/12 11:23:51;;;;;;;136.18;26.38;;;12.20;71.30;;;;;;5097477;28;20080;-61
2022/03/12 11:26:17;;;;;;;139.07;27.00;;;12.20;70.90;;;;;;5098368;28;20028;-63
2022/03/12 11:28:43;;;;;;;172.68;28.17;;;12.20;70.70;;;;;;5093829;28;20020;-61
2022/03/12 11:31:10;;;;;;;151.45;27.98;;;12.30;70.90;;;;;;5080533;28;20127;-62
2022/03/12 11:33:36;;;;;;;166.20;28.70;;;12.30;70.70;;;;;;5094086;28;20067;-62
2022/03/12 11:36:06;;;;;;;182.02;30.25;;;12.30;70.70;;;;;;5081586;28;20060;-61
2022/03/12 11:38:32;;;;;;;168.23;28.90;;;12.40;70.50;;;;;;5075188;28;20032;-61
2022/03/12 11:41:05;;;;;;;155.85;28.67;;;12.40;70.40;;;;;;5103762;27;20023;-62
2022/03/12 11:43:32;;;;;;;165.80;27.70;;;12.40;70.30;;;;;;5101284;28;20427;-61
2022/03/12 11:46:03;;;;;;;164.63;29.15;;;12.50;70.20;;;;;;5086573;28;20020;-61
2022/03/12 11:48:30;;;;;;;142.63;25.73;;;12.50;70.10;;;;;;5105770;28;20046;-61
2022/03/12 11:50:56;;;;;;;174.65;27.35;;;12.60;70.10;;;;;;5099006;28;20028;-62
2022/03/12 11:53:21;;;;;;;167.10;28.13;;;12.60;70.00;;;;;;5071710;28;20028;-61
2022/03/12 11:55:49;;;;;;;148.18;26.77;;;12.60;70.00;;;;;;5090050;28;20383;-61
2022/03/12 11:58:18;;;;;;;169.13;29.65;;;12.70;69.80;;;;;;5098073;28;20136;-61
2022/03/12 12:00:48;;;;;;;157.60;28.60;;;12.70;69.70;;;;;;5076430;28;20574;-61
2022/03/12 12:03:14;;;;;;;156.95;29.60;;;12.80;69.80;;;;;;5084594;28;20035;-62
2022/03/12 12:05:43;;;;;;;151.32;27.83;;;12.80;69.80;;;;;;5089896;28;20075;-61
2022/03/12 12:08:12;;;;;;;133.15;25.75;;;12.90;69.60;;;;;;5104094;28;20023;-61
2022/03/12 12:10:41;;;;;;;155.43;28.73;;;12.90;69.50;;;;;;5102589;28;20450;-61
2022/03/12 12:13:06;;;;;;;346.65;45.83;;;12.90;69.30;;;;;;5103772;28;20105;-61
2022/03/12 12:15:36;;;;;;;182.73;31.67;;;13.00;69.60;;;;;;5103159;28;20493;-62
2022/03/12 12:18:07;;;;;;;163.15;27.40;;;13.10;69.70;;;;;;5105086;28;20131;-60
2022/03/12 12:20:33;;;;;;;164.32;27.98;;;13.10;69.20;;;;;;5101187;28;20028;-62
2022/03/12 12:22:59;;;;;;;144.63;27.13;;;13.20;69.00;;;;;;5102198;28;20058;-62
2022/03/12 12:25:28;;;;;;;137.05;25.38;;;13.20;69.00;;;;;;5101879;28;20067;-62
2022/03/12 12:27:53;;;;;;;125.75;25.85;;;13.30;68.20;;;;;;5093547;28;20040;-61
2022/03/12 12:30:25;;;;;;;136.82;24.38;;;13.30;67.70;;;;;;5081225;28;20147;-61